TimeMDT,TemperatureF,Dew PointF,Humidity,Sea Level PressureIn,VisibilityMPH,Wind Direction,Wind SpeedMPH,Gust SpeedMPH,PrecipitationIn,Events,Conditions,WindDirDegrees,DateUTC
12:51 AM,59.0,33.1,38,29.89,10.0,SSW,5.8,-,N/A,,Clear,200,2013-06-17 06:51:00
1:51 AM,52.0,39.0,61,29.91,10.0,NE,5.8,-,N/A,,Clear,40,2013-06-17 07:51:00
2:51 AM,48.0,37.9,68,29.92,10.0,Calm,Calm,-,N/A,,Clear,0,2013-06-17 08:51:00
3:51 AM,48.9,37.0,64,29.91,10.0,SE,3.5,-,N/A,,Clear,130,2013-06-17 09:51:00
4:51 AM,46.0,37.0,71,29.93,10.0,Calm,Calm,-,N/A,,Clear,0,2013-06-17 10:51:00
5:51 AM,45.0,36.0,71,29.94,10.0,NE,6.9,-,N/A,,Clear,50,2013-06-17 11:51:00
6:51 AM,52.0,35.1,53,29.94,10.0,Calm,Calm,-,N/A,,Clear,0,2013-06-17 12:51:00
7:51 AM,55.9,37.0,49,29.95,10.0,Calm,Calm,-,N/A,,Clear,0,2013-06-17 13:51:00
8:51 AM,61.0,34.0,36,29.95,10.0,Calm,Calm,-,N/A,,Clear,0,2013-06-17 14:51:00
9:51 AM,66.9,34.0,30,29.96,10.0,North,3.5,-,N/A,,Clear,10,2013-06-17 15:51:00
10:51 AM,73.0,37.0,27,29.94,10.0,NNE,5.8,-,N/A,,Clear,30,2013-06-17 16:51:00
11:51 AM,77.0,35.1,22,29.95,10.0,NNW,5.8,-,N/A,,Clear,340,2013-06-17 17:51:00
12:51 PM,82.0,32.0,16,29.90,10.0,NNW,5.8,-,N/A,,Clear,330,2013-06-17 18:51:00
1:51 PM,84.9,32.0,15,29.89,10.0,NNE,4.6,-,N/A,,Clear,30,2013-06-17 19:51:00
2:51 PM,88.0,27.0,11,29.87,10.0,NW,4.6,-,N/A,,Clear,320,2013-06-17 20:51:00
3:51 PM,89.1,21.9,9,29.84,10.0,West,4.6,-,N/A,,Clear,270,2013-06-17 21:51:00
4:51 PM,88.0,24.1,10,29.83,10.0,Variable,3.5,-,N/A,,Clear,0,2013-06-17 22:51:00
5:51 PM,89.1,28.9,12,29.82,10.0,NW,6.9,-,N/A,,Clear,310,2013-06-17 23:51:00
6:51 PM,88.0,21.9,9,29.79,10.0,SW,5.8,-,N/A,,Clear,220,2013-06-18 00:51:00
7:51 PM,86.0,34.0,16,29.78,10.0,Calm,Calm,-,N/A,,Clear,0,2013-06-18 01:51:00
8:51 PM,81.0,39.9,23,29.78,10.0,ENE,3.5,-,N/A,,Clear,60,2013-06-18 02:51:00
9:51 PM,70.0,42.1,36,29.80,10.0,SSE,4.6,-,N/A,,Clear,160,2013-06-18 03:51:00
10:51 PM,64.9,37.9,37,29.81,10.0,South,4.6,-,N/A,,Clear,190,2013-06-18 04:51:00
11:51 PM,55.9,43.0,62,29.81,10.0,NNW,8.1,-,N/A,,Clear,340,2013-06-18 05:51:00